createdAt,value
2024-03-16T00:04:07.780Z,12.85
2024-03-16T00:14:09.805Z,13.13
2024-03-16T00:24:12.157Z,13.85
2024-03-16T00:34:14.610Z,13.00
2024-03-16T00:44:16.521Z,12.95
2024-03-16T00:54:18.207Z,12.70
2024-03-16T01:04:20.005Z,13.95
2024-03-16T01:14:21.798Z,13.25
2024-03-16T01:24:23.797Z,13.00
2024-03-16T01:34:25.862Z,12.95
2024-03-16T01:44:28.647Z,14.10
2024-03-16T01:54:32.011Z,13.65
2024-03-16T02:04:33.816Z,14.07
2024-03-16T02:14:35.837Z,13.45
2024-03-16T02:24:37.767Z,14.82
2024-03-16T02:34:39.802Z,14.00
2024-03-16T02:44:46.113Z,17.60
2024-03-16T02:54:48.048Z,16.23
2024-03-16T03:04:53.026Z,14.90
2024-03-16T03:14:54.780Z,14.60
2024-03-16T03:24:57.370Z,15.05
2024-03-16T03:34:59.230Z,15.50
2024-03-16T03:45:25.809Z,14.88
2024-03-16T03:55:28.081Z,15.25
2024-03-16T04:05:29.816Z,14.35
2024-03-16T04:15:32.022Z,15.52
2024-03-16T04:25:33.904Z,15.60
2024-03-16T04:35:35.769Z,16.98
2024-03-16T04:45:37.814Z,17.15
2024-03-16T04:55:40.317Z,14.98
2024-03-16T05:05:42.121Z,15.35
2024-03-16T05:15:43.997Z,15.55
2024-03-16T05:25:49.077Z,18.92
2024-03-16T05:35:50.824Z,15.55
2024-03-16T05:45:52.898Z,17.20
2024-03-16T05:55:55.004Z,19.30
2024-03-16T06:05:56.803Z,19.80
2024-03-16T06:15:58.835Z,16.63
2024-03-16T06:26:05.155Z,14.27
2024-03-16T06:36:07.299Z,15.07
2024-03-16T06:46:11.750Z,17.35
2024-03-16T06:56:14.622Z,13.70
2024-03-16T07:06:16.602Z,13.48
2024-03-16T07:16:18.356Z,12.02
2024-03-16T07:26:20.214Z,12.43
2024-03-16T07:36:22.402Z,9.50
2024-03-16T07:46:24.172Z,4.47
2024-03-16T07:56:26.723Z,2.65
2024-03-16T08:06:29.063Z,1.90
2024-03-16T08:16:31.480Z,1.50
2024-03-16T08:26:33.237Z,1.92
2024-03-16T08:36:35.067Z,1.67
2024-03-16T08:46:37.072Z,1.90
2024-03-16T08:56:39.121Z,2.38
2024-03-16T09:06:42.105Z,2.28
2024-03-16T09:16:44.674Z,2.30
2024-03-16T09:26:46.345Z,1.80
2024-03-16T09:36:48.151Z,1.10
